EGNSEGBJ

Guest
Details From EGNS - Isle Of Man Ronaldsway
To EGBJ - Gloucester
Flight Number -
Tags generated
Created
Modified
Stats Distance 159 nm / 294 km
Max Altitude 11,500 ft / 3,505 m
Waypoints 3
Social Downloads 0
Likes 0
Share VATSIM

Download

Looking for another format? Having issues loading an existing format? Contact us
Advertisement - Login to hide

Notes

Basic altitude profile: - Ascent Rate: 2500ft/min - Ascent Speed: 250kts - Cruise Altitude: 35000ft - Cruise Speed: 420kts - Descent Rate: 1500ft/min - Descent Speed: 250kts Options: - Use NATs: no - Use PACOTS: no - Use low airways: yes - Use high airways: no

Route

EGNS BCN25 EGBJ

ID Type Via Altitude Latitude Longitude Leg Dist Tot Dist Heading (true) Name
O EGNS APT - 0 ft / 0 m 54.08283˚ -4.62548˚ - 0 nm - Isle Of Man Ronaldsway
BCN25 FIX - 11,500 ft / 3,505 m 52.71500˚ -3.03417˚ 99 nm 99 nm 145° / 146° -
O EGBJ APT - 0 ft / 0 m 51.89288˚ -2.16501˚ 58 nm 158 nm 147° / 147° Gloucester

Altitude Profile

Advertisement - Login to hide

EGNS

Details ICAO EGNS (IOM)
Name Isle Of Man Ronaldsway
Region United Kingdom
Timezone Europe/Isle_of_Man (UTC+0.0)
Stats Elevation 52 ft / 16 m (AMSL)
Location 54.082833° -4.625475°
Runways 2
Magnetic Variation 2.487° W

METAR

EGNS 181420Z 22006KT 190V250 CAVOK 10/06 Q1029 NOSIG

Decode

TAF

Not found

Departure Runways

ID Width Length Bearing (true) Bearing (mag) Surface Threshold Offset Overrun Length
03 151 ft / 46 m 4,113 ft / 1,254 m 27.91° 30.40° Asphalt 492 ft / 150 m 0 ft / 0 m
08 151 ft / 46 m 6,016 ft / 1,834 m 77.93° 80.42° Asphalt 545 ft / 166 m 0 ft / 0 m
21 151 ft / 46 m 4,113 ft / 1,254 m 207.92° 210.41° Asphalt 0 ft / 0 m 0 ft / 0 m
26 151 ft / 46 m 6,016 ft / 1,834 m 257.95° 260.44° Asphalt 486 ft / 148 m 0 ft / 0 m

EGBJ

Details ICAO EGBJ (GLO)
Name Gloucester
Region United Kingdom
Timezone Europe/London (UTC+0.0)
Stats Elevation 101 ft / 31 m (AMSL)
Location 51.892883° -2.165011°
Runways 4
Magnetic Variation 1.215° W

METAR

EGBJ 181420Z 00000KT 8000 FEW020 09/05 Q1031

Decode

TAF

Not found

Destination Runways

ID Width Length Bearing (true) Bearing (mag) Surface Threshold Offset Overrun Length
04 112 ft / 34 m 3,217 ft / 981 m 34.55° 35.77° Asphalt 0 ft / 0 m 0 ft / 0 m
04R 62 ft / 19 m 999 ft / 304 m 34.70° 35.92° Grass 0 ft / 0 m 0 ft / 0 m
09 121 ft / 37 m 4,635 ft / 1,413 m 83.72° 84.94° Asphalt 381 ft / 116 m 0 ft / 0 m
18 59 ft / 18 m 2,620 ft / 799 m 173.93° 175.15° Asphalt 0 ft / 0 m 0 ft / 0 m
22 112 ft / 34 m 3,217 ft / 981 m 214.56° 215.78° Asphalt 285 ft / 87 m 0 ft / 0 m
22L 62 ft / 19 m 999 ft / 304 m 214.71° 215.93° Grass 0 ft / 0 m 0 ft / 0 m
27 121 ft / 37 m 4,635 ft / 1,413 m 263.74° 264.96° Asphalt 1,017 ft / 310 m 0 ft / 0 m
36 59 ft / 18 m 2,620 ft / 799 m 353.93° 355.15° Asphalt 0 ft / 0 m 0 ft / 0 m

Popular Alternatives